sensor_id;sensor_type;location;lat;lon;timestamp;pressure;altitude;pressure_sealevel;temperature;humidity
59043;BME280;44826;51.596;5.624;2024-01-10T00:00:38;103019.06;;;-5.82;62.49
59043;BME280;44826;51.596;5.624;2024-01-10T00:03:04;103022.34;;;-5.83;62.83
59043;BME280;44826;51.596;5.624;2024-01-10T00:05:29;103014.66;;;-5.84;62.96
59043;BME280;44826;51.596;5.624;2024-01-10T00:07:54;103014.66;;;-5.84;62.82
59043;BME280;44826;51.596;5.624;2024-01-10T00:10:20;103012.88;;;-5.85;63.38
59043;BME280;44826;51.596;5.624;2024-01-10T00:12:47;103011.09;;;-5.86;62.64
59043;BME280;44826;51.596;5.624;2024-01-10T00:15:12;103011.97;;;-5.86;62.70
59043;BME280;44826;51.596;5.624;2024-01-10T00:17:38;103014.50;;;-5.86;62.79
59043;BME280;44826;51.596;5.624;2024-01-10T00:20:06;103005.91;;;-5.88;62.90
59043;BME280;44826;51.596;5.624;2024-01-10T00:22:31;103002.50;;;-5.88;63.39
59043;BME280;44826;51.596;5.624;2024-01-10T00:24:56;103003.38;;;-5.88;62.97
59043;BME280;44826;51.596;5.624;2024-01-10T00:27:22;102990.47;;;-5.91;63.34
59043;BME280;44826;51.596;5.624;2024-01-10T00:29:47;102997.19;;;-5.91;63.26
59043;BME280;44826;51.596;5.624;2024-01-10T00:32:12;102991.25;;;-5.92;63.13
59043;BME280;44826;51.596;5.624;2024-01-10T00:34:38;102996.94;;;-5.95;63.29
59043;BME280;44826;51.596;5.624;2024-01-10T00:37:03;102982.50;;;-5.96;63.31
59043;BME280;44826;51.596;5.624;2024-01-10T00:39:28;102991.00;;;-5.95;63.19
59043;BME280;44826;51.596;5.624;2024-01-10T00:41:54;102996.84;;;-5.96;63.52
59043;BME280;44826;51.596;5.624;2024-01-10T00:44:19;102992.53;;;-5.97;63.52
59043;BME280;44826;51.596;5.624;2024-01-10T00:46:44;102995.19;;;-5.96;63.60
59043;BME280;44826;51.596;5.624;2024-01-10T00:49:09;102985.03;;;-5.96;63.85
59043;BME280;44826;51.596;5.624;2024-01-10T00:51:35;102991.78;;;-5.96;63.46
59043;BME280;44826;51.596;5.624;2024-01-10T00:54:00;102993.41;;;-5.97;63.68
59043;BME280;44826;51.596;5.624;2024-01-10T00:56:25;102994.16;;;-5.98;63.82
59043;BME280;44826;51.596;5.624;2024-01-10T00:58:51;102994.16;;;-5.98;63.73
59043;BME280;44826;51.596;5.624;2024-01-10T01:01:16;102984.81;;;-5.99;63.90
59043;BME280;44826;51.596;5.624;2024-01-10T01:03:41;102980.56;;;-6.00;63.26
59043;BME280;44826;51.596;5.624;2024-01-10T01:06:07;102983.16;;;-5.98;63.63
59043;BME280;44826;51.596;5.624;2024-01-10T01:08:32;102981.31;;;-6.01;63.72
59043;BME280;44826;51.596;5.624;2024-01-10T01:10:57;102974.47;;;-6.02;63.95
59043;BME280;44826;51.596;5.624;2024-01-10T01:13:23;102977.13;;;-6.00;63.63
59043;BME280;44826;51.596;5.624;2024-01-10T01:15:48;102981.31;;;-6.01;63.38
59043;BME280;44826;51.596;5.624;2024-01-10T01:18:13;102975.25;;;-6.03;63.95
59043;BME280;44826;51.596;5.624;2024-01-10T01:20:39;102980.19;;;-6.04;63.94
59043;BME280;44826;51.596;5.624;2024-01-10T01:23:05;102979.31;;;-6.05;64.55
59043;BME280;44826;51.596;5.624;2024-01-10T01:25:30;102975.88;;;-6.05;65.05
59043;BME280;44826;51.596;5.624;2024-01-10T01:27:55;102984.38;;;-6.05;64.66
59043;BME280;44826;51.596;5.624;2024-01-10T01:30:21;102984.38;;;-6.05;64.67
59043;BME280;44826;51.596;5.624;2024-01-10T01:32:47;102982.72;;;-6.04;64.47
59043;BME280;44826;51.596;5.624;2024-01-10T01:35:12;102989.44;;;-6.05;64.12
59043;BME280;44826;51.596;5.624;2024-01-10T01:37:37;102988.69;;;-6.04;64.54
59043;BME280;44826;51.596;5.624;2024-01-10T01:40:03;102982.50;;;-6.07;64.49
59043;BME280;44826;51.596;5.624;2024-01-10T01:42:29;102979.06;;;-6.08;64.84
59043;BME280;44826;51.596;5.624;2024-01-10T01:44:54;102972.22;;;-6.09;65.41
59043;BME280;44826;51.596;5.624;2024-01-10T01:47:19;102974.00;;;-6.08;64.85
59043;BME280;44826;51.596;5.624;2024-01-10T01:49:45;102966.16;;;-6.11;64.88
59043;BME280;44826;51.596;5.624;2024-01-10T01:52:10;102975.28;;;-6.13;64.70
59043;BME280;44826;51.596;5.624;2024-01-10T01:54:36;102971.78;;;-6.15;64.66
59043;BME280;44826;51.596;5.624;2024-01-10T01:57:01;102971.63;;;-6.17;65.73
59043;BME280;44826;51.596;5.624;2024-01-10T01:59:27;102968.25;;;-6.17;65.35
59043;BME280;44826;51.596;5.624;2024-01-10T02:01:54;102973.31;;;-6.17;64.99
59043;BME280;44826;51.596;5.624;2024-01-10T02:04:20;102974.84;;;-6.19;65.69
59043;BME280;44826;51.596;5.624;2024-01-10T02:06:45;102969.53;;;-6.22;66.14
59043;BME280;44826;51.596;5.624;2024-01-10T02:09:11;102962.78;;;-6.22;65.79
59043;BME280;44826;51.596;5.624;2024-01-10T02:11:36;102961.91;;;-6.22;65.80
59043;BME280;44826;51.596;5.624;2024-01-10T02:14:02;102961.91;;;-6.22;65.98
59043;BME280;44826;51.596;5.624;2024-01-10T02:16:27;102969.53;;;-6.22;65.60
59043;BME280;44826;51.596;5.624;2024-01-10T02:18:53;102959.38;;;-6.22;65.66
59043;BME280;44826;51.596;5.624;2024-01-10T02:21:21;102959.38;;;-6.22;65.97
59043;BME280;44826;51.596;5.624;2024-01-10T02:23:47;102962.69;;;-6.23;66.23
59043;BME280;44826;51.596;5.624;2024-01-10T02:26:13;102968.41;;;-6.26;66.97
59043;BME280;44826;51.596;5.624;2024-01-10T02:28:39;102971.03;;;-6.25;66.08
59043;BME280;44826;51.596;5.624;2024-01-10T02:31:04;102964.22;;;-6.26;66.04
59043;BME280;44826;51.596;5.624;2024-01-10T02:33:31;102972.81;;;-6.23;66.58
59043;BME280;44826;51.596;5.624;2024-01-10T02:35:57;102966.88;;;-6.24;66.27
59043;BME280;44826;51.596;5.624;2024-01-10T02:38:22;102971.94;;;-6.24;66.55
59043;BME280;44826;51.596;5.624;2024-01-10T02:40:49;102964.22;;;-6.26;66.18
59043;BME280;44826;51.596;5.624;2024-01-10T02:43:14;102963.34;;;-6.26;66.94
59043;BME280;44826;51.596;5.624;2024-01-10T02:45:39;102958.38;;;-6.25;66.01
59043;BME280;44826;51.596;5.624;2024-01-10T02:48:05;102960.03;;;-6.25;65.90
59043;BME280;44826;51.596;5.624;2024-01-10T02:50:30;102959.16;;;-6.26;66.08
59043;BME280;44826;51.596;5.624;2024-01-10T02:52:56;102960.03;;;-6.25;66.59
59043;BME280;44826;51.596;5.624;2024-01-10T02:55:21;102955.59;;;-6.28;66.44
59043;BME280;44826;51.596;5.624;2024-01-10T02:57:46;102957.38;;;-6.27;66.30
59043;BME280;44826;51.596;5.624;2024-01-10T03:00:12;102953.97;;;-6.27;66.59
59043;BME280;44826;51.596;5.624;2024-01-10T03:02:38;102947.13;;;-6.28;66.60
59043;BME280;44826;51.596;5.624;2024-01-10T03:05:03;102947.00;;;-6.30;66.90
59043;BME280;44826;51.596;5.624;2024-01-10T03:07:29;102945.22;;;-6.31;66.61
59043;BME280;44826;51.596;5.624;2024-01-10T03:09:54;102939.19;;;-6.33;67.13
59043;BME280;44826;51.596;5.624;2024-01-10T03:12:20;102935.84;;;-6.32;66.97
59043;BME280;44826;51.596;5.624;2024-01-10T03:14:45;102931.59;;;-6.33;66.80
59043;BME280;44826;51.596;5.624;2024-01-10T03:17:10;102933.31;;;-6.32;66.74
59043;BME280;44826;51.596;5.624;2024-01-10T03:19:36;102929.81;;;-6.34;66.75
59043;BME280;44826;51.596;5.624;2024-01-10T03:22:07;102932.22;;;-6.35;67.21
59043;BME280;44826;51.596;5.624;2024-01-10T03:24:32;102928.91;;;-6.34;66.71
59043;BME280;44826;51.596;5.624;2024-01-10T03:26:58;102921.97;;;-6.37;67.45
59043;BME280;44826;51.596;5.624;2024-01-10T03:29:23;102927.03;;;-6.37;67.43
59043;BME280;44826;51.596;5.624;2024-01-10T03:31:48;102920.97;;;-6.39;67.13
59043;BME280;44826;51.596;5.624;2024-01-10T03:34:14;102913.38;;;-6.39;67.86
59043;BME280;44826;51.596;5.624;2024-01-10T03:36:39;102913.47;;;-6.37;68.12
59043;BME280;44826;51.596;5.624;2024-01-10T03:39:04;102924.50;;;-6.37;66.98
59043;BME280;44826;51.596;5.624;2024-01-10T03:41:30;102919.31;;;-6.38;67.06
59043;BME280;44826;51.596;5.624;2024-01-10T03:43:55;102916.78;;;-6.38;67.18
59043;BME280;44826;51.596;5.624;2024-01-10T03:46:20;102917.69;;;-6.38;67.42
59043;BME280;44826;51.596;5.624;2024-01-10T03:48:46;102909.94;;;-6.40;67.62
59043;BME280;44826;51.596;5.624;2024-01-10T03:51:18;102915.00;;;-6.40;67.51
59043;BME280;44826;51.596;5.624;2024-01-10T03:53:44;102915.81;;;-6.41;68.19
59043;BME280;44826;51.596;5.624;2024-01-10T03:56:09;102917.44;;;-6.41;67.94
59043;BME280;44826;51.596;5.624;2024-01-10T03:58:35;102917.44;;;-6.41;67.72
59043;BME280;44826;51.596;5.624;2024-01-10T04:01:04;102909.06;;;-6.40;67.62
59043;BME280;44826;51.596;5.624;2024-01-10T04:03:30;102905.13;;;-6.36;67.48
59043;BME280;44826;51.596;5.624;2024-01-10T04:05:55;102893.97;;;-6.38;67.45
59043;BME280;44826;51.596;5.624;2024-01-10T04:08:21;102890.34;;;-6.42;68.32
59043;BME280;44826;51.596;5.624;2024-01-10T04:10:46;102895.16;;;-6.45;68.90
59043;BME280;44826;51.596;5.624;2024-01-10T04:13:11;102895.16;;;-6.45;68.04
59043;BME280;44826;51.596;5.624;2024-01-10T04:15:37;102893.63;;;-6.43;67.63
59043;BME280;44826;51.596;5.624;2024-01-10T04:18:02;102879.97;;;-6.45;68.39
59043;BME280;44826;51.596;5.624;2024-01-10T04:20:28;102874.66;;;-6.48;68.51
59043;BME280;44826;51.596;5.624;2024-01-10T04:22:53;102883.16;;;-6.48;68.34
59043;BME280;44826;51.596;5.624;2024-01-10T04:25:18;102887.31;;;-6.48;68.72
59043;BME280;44826;51.596;5.624;2024-01-10T04:27:44;102889.84;;;-6.48;67.76
59043;BME280;44826;51.596;5.624;2024-01-10T04:30:09;102884.78;;;-6.48;68.90
59043;BME280;44826;51.596;5.624;2024-01-10T04:32:35;102872.94;;;-6.49;68.58
59043;BME280;44826;51.596;5.624;2024-01-10T04:35:00;102878.84;;;-6.49;68.48
59043;BME280;44826;51.596;5.624;2024-01-10T04:37:26;102881.28;;;-6.50;68.58
59043;BME280;44826;51.596;5.624;2024-01-10T04:39:51;102872.69;;;-6.52;68.62
59043;BME280;44826;51.596;5.624;2024-01-10T04:42:17;102890.50;;;-6.51;68.79
59043;BME280;44826;51.596;5.624;2024-01-10T04:44:42;102894.72;;;-6.51;68.14
59043;BME280;44826;51.596;5.624;2024-01-10T04:47:08;102894.72;;;-6.51;68.37
59043;BME280;44826;51.596;5.624;2024-01-10T04:49:33;102894.72;;;-6.51;68.02
59043;BME280;44826;51.596;5.624;2024-01-10T04:51:58;102903.94;;;-6.52;68.21
59043;BME280;44826;51.596;5.624;2024-01-10T04:54:24;102898.09;;;-6.51;68.13
59043;BME280;44826;51.596;5.624;2024-01-10T04:56:49;102891.16;;;-6.53;68.90
59043;BME280;44826;51.596;5.624;2024-01-10T04:59:14;102890.16;;;-6.56;68.75
59043;BME280;44826;51.596;5.624;2024-01-10T05:01:40;102889.16;;;-6.58;68.76
59043;BME280;44826;51.596;5.624;2024-01-10T05:04:05;102885.88;;;-6.57;68.24
59043;BME280;44826;51.596;5.624;2024-01-10T05:06:31;102887.38;;;-6.59;68.53
59043;BME280;44826;51.596;5.624;2024-01-10T05:08:56;102878.78;;;-6.61;69.14
59043;BME280;44826;51.596;5.624;2024-01-10T05:11:24;102889.81;;;-6.60;68.48
59043;BME280;44826;51.596;5.624;2024-01-10T05:13:50;102896.50;;;-6.61;67.86
59043;BME280;44826;51.596;5.624;2024-01-10T05:36:52;102879.47;;;-6.74;69.55
59043;BME280;44826;51.596;5.624;2024-01-10T05:39:18;102879.63;;;-6.72;68.11
59043;BME280;44826;51.596;5.624;2024-01-10T05:41:45;102877.59;;;-6.76;69.38
59043;BME280;44826;51.596;5.624;2024-01-10T05:44:11;102886.84;;;-6.77;70.18
59043;BME280;44826;51.596;5.624;2024-01-10T05:46:36;102879.88;;;-6.79;69.58
59043;BME280;44826;51.596;5.624;2024-01-10T05:49:02;102878.00;;;-6.82;69.66
59043;BME280;44826;51.596;5.624;2024-01-10T05:51:29;102882.97;;;-6.83;69.91
59043;BME280;44826;51.596;5.624;2024-01-10T05:53:55;102885.50;;;-6.83;69.58
59043;BME280;44826;51.596;5.624;2024-01-10T05:56:20;102887.13;;;-6.84;69.29
59043;BME280;44826;51.596;5.624;2024-01-10T05:58:45;102889.53;;;-6.86;69.44
59043;BME280;44826;51.596;5.624;2024-01-10T06:01:10;102885.25;;;-6.87;69.69
59043;BME280;44826;51.596;5.624;2024-01-10T06:03:36;102883.47;;;-6.88;70.08
59043;BME280;44826;51.596;5.624;2024-01-10T06:06:02;102886.78;;;-6.89;70.43
59043;BME280;44826;51.596;5.624;2024-01-10T06:08:28;102890.94;;;-6.89;70.02
59043;BME280;44826;51.596;5.624;2024-01-10T06:10:54;102884.84;;;-6.91;70.35
59043;BME280;44826;51.596;5.624;2024-01-10T06:13:19;102891.59;;;-6.92;70.00
59043;BME280;44826;51.596;5.624;2024-01-10T06:15:44;102887.16;;;-6.94;70.49
59043;BME280;44826;51.596;5.624;2024-01-10T06:18:10;102882.88;;;-6.95;70.63
59043;BME280;44826;51.596;5.624;2024-01-10T06:20:35;102881.22;;;-6.95;70.03
59043;BME280;44826;51.596;5.624;2024-01-10T06:23:03;102876.91;;;-6.96;70.71
59043;BME280;44826;51.596;5.624;2024-01-10T06:25:29;102876.91;;;-6.96;70.98
59043;BME280;44826;51.596;5.624;2024-01-10T06:27:54;102871.09;;;-6.95;70.05
59043;BME280;44826;51.596;5.624;2024-01-10T06:30:20;102881.72;;;-6.99;70.35
59043;BME280;44826;51.596;5.624;2024-01-10T06:32:45;102875.91;;;-6.98;70.03
59043;BME280;44826;51.596;5.624;2024-01-10T06:35:11;102869.06;;;-6.99;70.58
59043;BME280;44826;51.596;5.624;2024-01-10T06:37:37;102868.84;;;-7.02;70.71
59043;BME280;44826;51.596;5.624;2024-01-10T06:40:03;102861.88;;;-7.05;70.42
59043;BME280;44826;51.596;5.624;2024-01-10T06:42:29;102865.94;;;-7.07;70.83
59043;BME280;44826;51.596;5.624;2024-01-10T06:44:55;102876.31;;;-7.04;70.09
59043;BME280;44826;51.596;5.624;2024-01-10T06:47:21;102876.19;;;-7.05;70.95
59043;BME280;44826;51.596;5.624;2024-01-10T06:49:46;102878.47;;;-7.08;70.75
59043;BME280;44826;51.596;5.624;2024-01-10T06:52:12;102876.81;;;-7.08;71.01
59043;BME280;44826;51.596;5.624;2024-01-10T06:54:37;102871.66;;;-7.09;71.12
59043;BME280;44826;51.596;5.624;2024-01-10T06:57:03;102870.78;;;-7.10;70.96
59043;BME280;44826;51.596;5.624;2024-01-10T06:59:28;102871.53;;;-7.11;71.41
59043;BME280;44826;51.596;5.624;2024-01-10T07:01:53;102880.00;;;-7.10;71.44
59043;BME280;44826;51.596;5.624;2024-01-10T07:04:21;102877.34;;;-7.12;70.99
59043;BME280;44826;51.596;5.624;2024-01-10T07:06:49;102879.75;;;-7.13;71.09
59043;BME280;44826;51.596;5.624;2024-01-10T07:09:14;102879.75;;;-7.13;71.82
59043;BME280;44826;51.596;5.624;2024-01-10T07:11:47;102874.06;;;-7.11;71.52
59043;BME280;44826;51.596;5.624;2024-01-10T07:14:14;102883.28;;;-7.11;71.20
59043;BME280;44826;51.596;5.624;2024-01-10T07:16:39;102892.66;;;-7.10;71.15
59043;BME280;44826;51.596;5.624;2024-01-10T07:19:10;102884.81;;;-7.13;72.00
59043;BME280;44826;51.596;5.624;2024-01-10T07:21:39;102889.09;;;-7.12;70.73
59043;BME280;44826;51.596;5.624;2024-01-10T07:24:04;102894.06;;;-7.14;70.89
59043;BME280;44826;51.596;5.624;2024-01-10T07:26:30;102896.44;;;-7.16;71.64
59043;BME280;44826;51.596;5.624;2024-01-10T07:28:55;102899.13;;;-7.14;71.21
59043;BME280;44826;51.596;5.624;2024-01-10T07:31:20;102898.47;;;-7.11;71.72
59043;BME280;44826;51.596;5.624;2024-01-10T07:33:46;102895.81;;;-7.13;71.85
59043;BME280;44826;51.596;5.624;2024-01-10T07:36:11;102881.53;;;-7.12;72.04
59043;BME280;44826;51.596;5.624;2024-01-10T07:38:36;102878.22;;;-7.11;71.86
59043;BME280;44826;51.596;5.624;2024-01-10T07:41:02;102882.16;;;-7.15;71.51
59043;BME280;44826;51.596;5.624;2024-01-10T07:43:27;102877.97;;;-7.14;71.28
59043;BME280;44826;51.596;5.624;2024-01-10T07:45:53;102884.81;;;-7.13;72.28
59043;BME280;44826;51.596;5.624;2024-01-10T07:48:18;102880.75;;;-7.11;72.12
59043;BME280;44826;51.596;5.624;2024-01-10T07:50:43;102869.00;;;-7.11;71.27
59043;BME280;44826;51.596;5.624;2024-01-10T07:53:09;102862.53;;;-7.07;71.85
59043;BME280;44826;51.596;5.624;2024-01-10T07:55:35;102864.06;;;-7.09;71.71
59043;BME280;44826;51.596;5.624;2024-01-10T07:58:00;102870.13;;;-7.07;72.37
59043;BME280;44826;51.596;5.624;2024-01-10T08:00:26;102870.13;;;-7.07;71.90
59043;BME280;44826;51.596;5.624;2024-01-10T08:02:51;102867.84;;;-7.04;72.17
59043;BME280;44826;51.596;5.624;2024-01-10T08:05:17;102863.78;;;-7.02;71.77
59043;BME280;44826;51.596;5.624;2024-01-10T08:07:43;102869.84;;;-7.00;72.01
59043;BME280;44826;51.596;5.624;2024-01-10T08:10:09;102874.13;;;-6.99;72.44
59043;BME280;44826;51.596;5.624;2024-01-10T08:12:39;102876.03;;;-6.96;72.38
59043;BME280;44826;51.596;5.624;2024-01-10T08:15:05;102872.00;;;-6.94;72.02
59043;BME280;44826;51.596;5.624;2024-01-10T08:17:31;102871.34;;;-6.92;71.79
59043;BME280;44826;51.596;5.624;2024-01-10T08:19:58;102868.03;;;-6.91;71.85
59043;BME280;44826;51.596;5.624;2024-01-10T08:22:23;102881.69;;;-6.89;71.90
59043;BME280;44826;51.596;5.624;2024-01-10T08:24:48;102875.88;;;-6.88;72.21
59043;BME280;44826;51.596;5.624;2024-01-10T08:27:15;102881.28;;;-6.83;72.30
59043;BME280;44826;51.596;5.624;2024-01-10T08:29:42;102886.72;;;-6.78;71.72
59043;BME280;44826;51.596;5.624;2024-01-10T08:32:07;102887.72;;;-6.76;71.88
59043;BME280;44826;51.596;5.624;2024-01-10T08:34:32;102882.78;;;-6.75;71.63
59043;BME280;44826;51.596;5.624;2024-01-10T08:36:58;102884.16;;;-6.68;71.58
59043;BME280;44826;51.596;5.624;2024-01-10T08:39:23;102882.50;;;-6.67;72.22
59043;BME280;44826;51.596;5.624;2024-01-10T08:41:51;102881.06;;;-6.64;71.54
59043;BME280;44826;51.596;5.624;2024-01-10T08:44:18;102880.56;;;-6.60;71.65
59043;BME280;44826;51.596;5.624;2024-01-10T08:46:44;102883.22;;;-6.58;71.75
59043;BME280;44826;51.596;5.624;2024-01-10T08:49:09;102879.13;;;-6.56;71.91
59043;BME280;44826;51.596;5.624;2024-01-10T08:51:36;102877.75;;;-6.52;71.90
59043;BME280;44826;51.596;5.624;2024-01-10T08:54:03;102877.75;;;-6.52;71.91
59043;BME280;44826;51.596;5.624;2024-01-10T08:56:28;102878.75;;;-6.50;71.60
59043;BME280;44826;51.596;5.624;2024-01-10T08:58:54;102880.88;;;-6.45;71.36
59043;BME280;44826;51.596;5.624;2024-01-10T09:01:19;102882.75;;;-6.42;71.47
59043;BME280;44826;51.596;5.624;2024-01-10T09:03:46;102877.91;;;-6.39;72.00
59043;BME280;44826;51.596;5.624;2024-01-10T09:06:11;102888.53;;;-6.33;71.28
59043;BME280;44826;51.596;5.624;2024-01-10T09:08:37;102889.50;;;-6.31;71.57
59043;BME280;44826;51.596;5.624;2024-01-10T09:11:02;102883.16;;;-6.26;70.96
59043;BME280;44826;51.596;5.624;2024-01-10T09:13:28;102893.53;;;-6.22;70.45
59043;BME280;44826;51.596;5.624;2024-01-10T09:15:53;102895.28;;;-6.21;70.90
59043;BME280;44826;51.596;5.624;2024-01-10T09:18:19;102890.47;;;-6.18;70.90
59043;BME280;44826;51.596;5.624;2024-01-10T09:20:44;102897.50;;;-6.14;71.08
59043;BME280;44826;51.596;5.624;2024-01-10T09:23:10;102896.97;;;-6.10;70.78
59043;BME280;44826;51.596;5.624;2024-01-10T09:25:36;102899.09;;;-6.04;70.75
59043;BME280;44826;51.596;5.624;2024-01-10T09:28:01;102895.16;;;-6.01;71.02
59043;BME280;44826;51.596;5.624;2024-01-10T09:30:27;102888.97;;;-5.92;70.14
59043;BME280;44826;51.596;5.624;2024-01-10T09:32:52;102892.50;;;-5.90;70.09
59043;BME280;44826;51.596;5.624;2024-01-10T09:35:17;102886.91;;;-5.86;70.50
59043;BME280;44826;51.596;5.624;2024-01-10T09:37:43;102899.81;;;-5.83;70.01
59043;BME280;44826;51.596;5.624;2024-01-10T09:40:11;102900.91;;;-5.80;70.56
59043;BME280;44826;51.596;5.624;2024-01-10T09:42:39;102903.78;;;-5.75;70.26
59043;BME280;44826;51.596;5.624;2024-01-10T09:45:05;102905.78;;;-5.71;69.67
59043;BME280;44826;51.596;5.624;2024-01-10T09:47:31;102909.31;;;-5.69;69.34
59043;BME280;44826;51.596;5.624;2024-01-10T09:49:57;102902.81;;;-5.65;69.75
59043;BME280;44826;51.596;5.624;2024-01-10T09:52:27;102906.69;;;-5.58;69.33
59043;BME280;44826;51.596;5.624;2024-01-10T09:54:57;102909.56;;;-5.54;69.12
59043;BME280;44826;51.596;5.624;2024-01-10T09:57:25;102914.09;;;-5.50;69.14
59043;BME280;44826;51.596;5.624;2024-01-10T09:59:51;102905.03;;;-5.46;68.15
59043;BME280;44826;51.596;5.624;2024-01-10T10:02:18;102914.88;;;-5.39;68.43
59043;BME280;44826;51.596;5.624;2024-01-10T10:05:04;102904.97;;;-5.36;68.82
59043;BME280;44826;51.596;5.624;2024-01-10T10:07:53;102906.19;;;-5.30;68.13
59043;BME280;44826;51.596;5.624;2024-01-10T10:10:19;102908.94;;;-5.27;67.98
59043;BME280;44826;51.596;5.624;2024-01-10T10:12:49;102903.31;;;-5.23;68.00
59043;BME280;44826;51.596;5.624;2024-01-10T10:15:16;102899.47;;;-5.18;68.01
59043;BME280;44826;51.596;5.624;2024-01-10T10:17:44;102905.75;;;-5.13;67.92
59043;BME280;44826;51.596;5.624;2024-01-10T10:20:14;102902.00;;;-5.06;68.40
59043;BME280;44826;51.596;5.624;2024-01-10T10:22:40;102905.66;;;-5.03;67.86
59043;BME280;44826;51.596;5.624;2024-01-10T10:25:07;102894.16;;;-4.97;67.90
59043;BME280;44826;51.596;5.624;2024-01-10T10:27:36;102897.13;;;-4.91;67.74
59043;BME280;44826;51.596;5.624;2024-01-10T10:30:02;102896.56;;;-4.87;66.71
59043;BME280;44826;51.596;5.624;2024-01-10T10:32:27;102892.50;;;-4.85;66.80
59043;BME280;44826;51.596;5.624;2024-01-10T10:34:52;102886.09;;;-4.80;67.25
59043;BME280;44826;51.596;5.624;2024-01-10T10:37:21;102887.28;;;-4.75;67.48
59043;BME280;44826;51.596;5.624;2024-01-10T10:39:46;102881.56;;;-4.72;66.18
59043;BME280;44826;51.596;5.624;2024-01-10T10:42:12;102881.75;;;-4.69;65.76
59043;BME280;44826;51.596;5.624;2024-01-10T10:44:40;102868.50;;;-4.65;66.46
59043;BME280;44826;51.596;5.624;2024-01-10T10:47:09;102878.41;;;-4.56;66.15
59043;BME280;44826;51.596;5.624;2024-01-10T10:49:39;102882.84;;;-4.53;65.63
59043;BME280;44826;51.596;5.624;2024-01-10T10:52:07;102885.69;;;-4.49;66.03
59043;BME280;44826;51.596;5.624;2024-01-10T10:54:37;102878.38;;;-4.44;64.67
59043;BME280;44826;51.596;5.624;2024-01-10T10:57:04;102876.16;;;-4.39;65.38
59043;BME280;44826;51.596;5.624;2024-01-10T10:59:33;102875.69;;;-4.34;64.77
59043;BME280;44826;51.596;5.624;2024-01-10T11:01:59;102885.41;;;-4.28;65.03
59043;BME280;44826;51.596;5.624;2024-01-10T11:04:25;102877.19;;;-4.24;64.44
59043;BME280;44826;51.596;5.624;2024-01-10T11:06:51;102874.09;;;-4.20;64.64
59043;BME280;44826;51.596;5.624;2024-01-10T11:09:18;102869.22;;;-4.17;64.08
59043;BME280;44826;51.596;5.624;2024-01-10T11:15:14;102869.16;;;-4.05;64.09
59043;BME280;44826;51.596;5.624;2024-01-10T11:18:15;102866.25;;;-3.98;64.13
59043;BME280;44826;51.596;5.624;2024-01-10T11:23:54;102865.31;;;-3.86;63.31
59043;BME280;44826;51.596;5.624;2024-01-10T11:26:20;102863.06;;;-3.82;63.33
59043;BME280;44826;51.596;5.624;2024-01-10T11:28:46;102855.81;;;-3.75;64.00
59043;BME280;44826;51.596;5.624;2024-01-10T11:31:13;102858.78;;;-3.69;63.07
59043;BME280;44826;51.596;5.624;2024-01-10T11:33:42;102858.28;;;-3.63;62.77
59043;BME280;44826;51.596;5.624;2024-01-10T11:36:15;102851.00;;;-3.59;62.63
59043;BME280;44826;51.596;5.624;2024-01-10T11:39:04;102846.28;;;-3.53;64.04
59043;BME280;44826;51.596;5.624;2024-01-10T11:41:36;102850.88;;;-3.47;62.89
59043;BME280;44826;51.596;5.624;2024-01-10T11:44:27;102844.63;;;-3.39;62.85
59043;BME280;44826;51.596;5.624;2024-01-10T11:46:55;102849.03;;;-3.36;62.90
59043;BME280;44826;51.596;5.624;2024-01-10T11:49:22;102843.56;;;-3.29;61.68
59043;BME280;44826;51.596;5.624;2024-01-10T11:51:49;102846.38;;;-3.24;62.03
59043;BME280;44826;51.596;5.624;2024-01-10T11:54:47;102845.41;;;-3.13;63.76
59043;BME280;44826;51.596;5.624;2024-01-10T11:57:28;102845.72;;;-3.08;61.74
59043;BME280;44826;51.596;5.624;2024-01-10T11:59:57;102844.31;;;-3.03;61.39
59043;BME280;44826;51.596;5.624;2024-01-10T12:02:25;102840.59;;;-2.95;61.06
59043;BME280;44826;51.596;5.624;2024-01-10T12:04:51;102836.84;;;-2.86;60.55
59043;BME280;44826;51.596;5.624;2024-01-10T12:07:17;102841.63;;;-2.78;60.93
59043;BME280;44826;51.596;5.624;2024-01-10T12:09:45;102831.91;;;-2.70;60.79
59043;BME280;44826;51.596;5.624;2024-01-10T12:12:14;102831.75;;;-2.58;60.25
59043;BME280;44826;51.596;5.624;2024-01-10T12:14:40;102826.94;;;-2.53;60.24
59043;BME280;44826;51.596;5.624;2024-01-10T12:17:06;102830.47;;;-2.51;60.05
59043;BME280;44826;51.596;5.624;2024-01-10T12:19:35;102827.31;;;-2.47;59.74
59043;BME280;44826;51.596;5.624;2024-01-10T12:22:03;102823.47;;;-2.40;59.53
59043;BME280;44826;51.596;5.624;2024-01-10T12:24:28;102826.47;;;-2.33;59.85
59043;BME280;44826;51.596;5.624;2024-01-10T12:26:57;102823.50;;;-2.25;59.51
59043;BME280;44826;51.596;5.624;2024-01-10T12:29:23;102819.47;;;-2.22;59.22
59043;BME280;44826;51.596;5.624;2024-01-10T12:31:50;102817.97;;;-2.18;59.18
59043;BME280;44826;51.596;5.624;2024-01-10T12:34:16;102826.78;;;-2.13;59.63
59043;BME280;44826;51.596;5.624;2024-01-10T12:36:42;102823.69;;;-2.07;59.32
59043;BME280;44826;51.596;5.624;2024-01-10T12:39:07;102820.81;;;-1.99;58.71
59043;BME280;44826;51.596;5.624;2024-01-10T12:41:33;102815.28;;;-1.91;59.06
59043;BME280;44826;51.596;5.624;2024-01-10T12:44:00;102810.50;;;-1.85;58.74
59043;BME280;44826;51.596;5.624;2024-01-10T12:46:29;102817.03;;;-1.75;58.15
59043;BME280;44826;51.596;5.624;2024-01-10T12:49:05;102809.97;;;-1.64;60.12
59043;BME280;44826;51.596;5.624;2024-01-10T12:51:33;102817.28;;;-1.56;58.29
59043;BME280;44826;51.596;5.624;2024-01-10T12:53:59;102819.41;;;-1.48;58.21
59043;BME280;44826;51.596;5.624;2024-01-10T12:56:25;102818.06;;;-1.42;57.97
59043;BME280;44826;51.596;5.624;2024-01-10T12:58:52;102824.28;;;-1.37;58.32
59043;BME280;44826;51.596;5.624;2024-01-10T13:01:18;102822.00;;;-1.32;55.85
59043;BME280;44826;51.596;5.624;2024-01-10T13:03:43;102825.59;;;-1.28;56.45
59043;BME280;44826;51.596;5.624;2024-01-10T13:06:09;102827.53;;;-1.24;57.04
59043;BME280;44826;51.596;5.624;2024-01-10T13:08:35;102821.16;;;-1.16;56.93
59043;BME280;44826;51.596;5.624;2024-01-10T13:11:00;102825.19;;;-1.04;57.17
59043;BME280;44826;51.596;5.624;2024-01-10T13:13:25;102822.25;;;-0.96;55.80